createdAt,value
2022-12-07T00:01:22.191Z,100565.66
2022-12-07T00:03:52.124Z,100562.97
2022-12-07T00:06:21.098Z,100563.75
2022-12-07T00:08:50.707Z,100561.19
2022-12-07T00:11:21.301Z,100569.16
2022-12-07T00:13:49.973Z,100561.19
2022-12-07T00:16:19.705Z,100563.81
2022-12-07T00:18:48.035Z,100555.13
2022-12-07T00:21:17.613Z,100548.06
2022-12-07T00:23:47.352Z,100547.06
2022-12-07T00:26:18.538Z,100548.00
2022-12-07T00:28:49.351Z,100548.84
2022-12-07T00:31:19.125Z,100542.03
2022-12-07T00:33:47.772Z,100549.94
2022-12-07T00:36:21.784Z,100542.97
2022-12-07T00:38:52.686Z,100551.72
2022-12-07T00:41:24.175Z,100545.81
2022-12-07T00:43:52.556Z,100545.19
2022-12-07T00:46:21.569Z,100539.00
2022-12-07T00:48:50.178Z,100539.69
2022-12-07T00:51:20.179Z,100546.69
2022-12-07T00:53:48.370Z,100539.69
2022-12-07T00:56:17.987Z,100543.34
2022-12-07T00:58:51.890Z,100541.56
2022-12-07T01:01:19.744Z,100539.00
2022-12-07T01:03:47.652Z,100538.91
2022-12-07T01:06:17.835Z,100535.56
2022-12-07T01:08:46.234Z,100544.19
2022-12-07T01:11:16.803Z,100542.41
2022-12-07T01:13:45.097Z,100543.28
2022-12-07T01:16:16.712Z,100530.88
2022-12-07T01:18:47.670Z,100525.69
2022-12-07T01:21:18.826Z,100520.41
2022-12-07T01:23:46.762Z,100530.88
2022-12-07T01:26:16.710Z,100525.44
2022-12-07T01:28:45.242Z,100532.31
2022-12-07T01:31:16.665Z,100522.66
2022-12-07T01:33:46.052Z,100524.34
2022-12-07T01:36:17.045Z,100521.72
2022-12-07T01:38:45.343Z,100520.09
2022-12-07T01:41:14.339Z,100536.94
2022-12-07T01:44:18.569Z,100540.53
2022-12-07T01:46:48.862Z,100539.88
2022-12-07T01:49:36.110Z,100540.63
2022-12-07T01:52:11.502Z,100540.63
2022-12-07T01:54:39.443Z,100538.00
2022-12-07T01:57:10.232Z,100533.41
2022-12-07T01:59:38.427Z,100536.03
2022-12-07T02:02:12.612Z,100538.53
2022-12-07T02:04:40.574Z,100541.19
2022-12-07T02:07:08.978Z,100543.75
2022-12-07T02:09:36.665Z,100535.84
2022-12-07T02:12:05.473Z,100532.25
2022-12-07T02:14:33.222Z,100527.84
2022-12-07T02:17:14.732Z,100514.81
2022-12-07T02:20:22.061Z,100517.59
2022-12-07T02:23:19.493Z,100523.19
2022-12-07T02:26:04.557Z,100512.09
2022-12-07T02:28:36.059Z,100514.97
2022-12-07T02:31:12.192Z,100516.13
2022-12-07T02:33:47.136Z,100513.69
2022-12-07T02:36:20.771Z,100511.38
2022-12-07T02:38:56.775Z,100514.94
2022-12-07T02:41:31.493Z,100514.94
2022-12-07T02:44:02.613Z,100514.16
2022-12-07T02:46:35.645Z,100506.41
2022-12-07T02:49:04.389Z,100509.91
2022-12-07T02:51:32.720Z,100504.72
2022-12-07T02:54:01.165Z,100499.38
2022-12-07T02:56:38.509Z,100494.00
2022-12-07T02:59:26.224Z,100496.75
2022-12-07T03:02:08.377Z,100487.00
2022-12-07T03:04:45.313Z,100494.78
2022-12-07T03:07:23.437Z,100488.59
2022-12-07T03:09:59.958Z,100491.06
2022-12-07T03:12:34.269Z,100489.31
2022-12-07T03:15:08.388Z,100482.19
2022-12-07T03:17:41.899Z,100478.63
2022-12-07T03:20:13.397Z,100483.03
2022-12-07T03:22:45.192Z,100485.44
2022-12-07T03:25:15.885Z,100484.44
2022-12-07T03:27:51.142Z,100471.28
2022-12-07T03:30:21.498Z,100474.75
2022-12-07T03:32:55.245Z,100473.91
2022-12-07T03:35:27.464Z,100471.19
2022-12-07T03:37:58.136Z,100465.00
2022-12-07T03:40:31.849Z,100467.47
2022-12-07T03:43:02.619Z,100467.47
2022-12-07T03:45:41.819Z,100462.19
2022-12-07T03:48:22.133Z,100459.50
2022-12-07T03:50:54.973Z,100462.91
2022-12-07T03:53:26.871Z,100469.97
2022-12-07T03:55:56.316Z,100469.88
2022-12-07T03:58:25.096Z,100463.66
2022-12-07T04:00:53.924Z,100462.69
2022-12-07T04:03:23.105Z,100468.94
2022-12-07T04:05:51.230Z,100461.81
2022-12-07T04:08:19.001Z,100475.06
2022-12-07T04:10:47.261Z,100470.59
2022-12-07T04:13:14.956Z,100471.38
2022-12-07T04:15:42.804Z,100471.25
2022-12-07T04:18:10.583Z,100472.91
2022-12-07T04:20:39.888Z,100470.19
2022-12-07T04:23:07.608Z,100472.75
2022-12-07T04:25:35.344Z,100478.78
2022-12-07T04:28:03.103Z,100475.13
2022-12-07T04:30:30.871Z,100467.31
2022-12-07T04:32:58.543Z,100460.25
2022-12-07T04:35:26.262Z,100463.59
2022-12-07T04:37:55.410Z,100454.81
2022-12-07T04:40:23.228Z,100458.22
2022-12-07T04:42:50.906Z,100457.38
2022-12-07T04:45:18.581Z,100457.25
2022-12-07T04:47:46.302Z,100459.81
2022-12-07T04:50:14.070Z,100459.03
2022-12-07T04:52:41.858Z,100457.25
2022-12-07T04:55:11.076Z,100455.38
2022-12-07T04:57:38.812Z,100451.72
2022-12-07T05:00:07.866Z,100455.13
2022-12-07T05:02:35.695Z,100455.06
2022-12-07T05:05:03.446Z,100451.41
2022-12-07T05:07:31.242Z,100446.06
2022-12-07T05:09:59.053Z,100447.75
2022-12-07T05:12:28.313Z,100453.72
2022-12-07T05:14:56.090Z,100456.34
2022-12-07T05:17:23.782Z,100449.31
2022-12-07T05:19:51.474Z,100458.13
2022-12-07T05:22:19.307Z,100454.47
2022-12-07T05:24:46.983Z,100460.63
2022-12-07T05:27:14.693Z,100456.28
2022-12-07T05:29:43.756Z,100452.72
2022-12-07T05:32:11.456Z,100450.75
2022-12-07T05:34:39.320Z,100447.34
2022-12-07T05:37:07.068Z,100451.53
2022-12-07T05:39:34.792Z,100447.34
2022-12-07T05:42:14.249Z,100452.63
2022-12-07T05:44:45.134Z,100457.88
2022-12-07T05:47:13.148Z,100463.28
2022-12-07T05:49:40.878Z,100453.63
2022-12-07T05:52:08.769Z,100453.56
2022-12-07T05:54:36.594Z,100447.44
2022-12-07T05:57:04.577Z,100450.09
2022-12-07T05:59:31.274Z,100450.16
2022-12-07T06:02:02.150Z,100451.94
2022-12-07T06:04:32.394Z,100442.31
2022-12-07T06:07:00.492Z,100447.75
2022-12-07T06:09:29.892Z,100451.06
2022-12-07T06:12:24.049Z,100453.88
2022-12-07T06:14:51.954Z,100451.31
2022-12-07T06:17:21.097Z,100444.19
2022-12-07T06:19:48.847Z,100452.16
2022-12-07T06:22:17.172Z,100453.13
2022-12-07T06:24:44.995Z,100452.88
2022-12-07T06:27:12.879Z,100447.91
2022-12-07T06:29:40.623Z,100451.47
2022-12-07T06:32:08.638Z,100446.06
2022-12-07T06:34:37.947Z,100451.41
2022-12-07T06:37:05.718Z,100457.63
2022-12-07T06:39:33.395Z,100455.81
2022-12-07T06:42:01.390Z,100456.91
2022-12-07T06:44:29.038Z,100463.03
2022-12-07T06:47:18.713Z,100460.41
2022-12-07T06:49:46.578Z,100463.81
2022-12-07T06:52:14.314Z,100461.16
2022-12-07T06:54:42.163Z,100455.13
2022-12-07T06:57:09.945Z,100461.25
2022-12-07T06:59:37.800Z,100459.47
2022-12-07T07:02:05.843Z,100463.88
2022-12-07T07:04:33.801Z,100466.44
2022-12-07T07:07:02.877Z,100477.00
2022-12-07T07:09:30.572Z,100469.84
2022-12-07T07:11:58.307Z,100473.34
2022-12-07T07:14:26.125Z,100470.63
2022-12-07T07:16:54.043Z,100470.69
2022-12-07T07:19:21.971Z,100475.91
2022-12-07T07:21:49.664Z,100473.97
2022-12-07T07:24:18.776Z,100476.66
2022-12-07T07:26:46.501Z,100485.41
2022-12-07T07:29:14.501Z,100475.81
2022-12-07T07:31:42.237Z,100475.81
2022-12-07T07:34:09.997Z,100483.66
2022-12-07T07:36:37.791Z,100477.38
2022-12-07T07:39:05.915Z,100483.41
2022-12-07T07:41:34.949Z,100484.25
2022-12-07T07:44:02.794Z,100490.41
2022-12-07T07:46:30.583Z,100492.94
2022-12-07T07:48:58.328Z,100486.75
2022-12-07T07:51:26.103Z,100494.59
2022-12-07T07:53:53.790Z,100495.44
2022-12-07T07:56:21.510Z,100495.34
2022-12-07T07:58:54.060Z,100496.97
2022-12-07T08:01:21.878Z,100508.34
2022-12-07T08:03:50.328Z,100506.50
2022-12-07T08:06:18.116Z,100512.41
2022-12-07T08:08:45.868Z,100509.56
2022-12-07T08:11:13.966Z,100511.06
2022-12-07T08:13:41.677Z,100506.47
2022-12-07T08:16:12.818Z,100508.84
2022-12-07T08:18:43.300Z,100508.72
2022-12-07T08:21:14.881Z,100508.53
2022-12-07T08:23:43.488Z,100513.72
2022-12-07T08:26:12.827Z,100506.75
2022-12-07T08:28:41.026Z,100512.81
2022-12-07T08:31:12.859Z,100506.59
2022-12-07T08:33:41.281Z,100505.66
2022-12-07T08:36:11.548Z,100508.13
2022-12-07T08:38:44.944Z,100508.13
2022-12-07T08:41:19.978Z,100507.03
2022-12-07T08:43:47.683Z,100511.19
2022-12-07T08:46:22.446Z,100510.09
2022-12-07T08:48:55.092Z,100508.91
2022-12-07T08:51:24.146Z,100507.03
2022-12-07T08:53:53.289Z,100502.31
2022-12-07T08:56:22.409Z,100510.81
2022-12-07T08:58:50.864Z,100510.47
2022-12-07T09:01:20.068Z,100509.34
2022-12-07T09:03:47.915Z,100508.25
2022-12-07T09:06:15.817Z,100515.06
2022-12-07T09:08:48.736Z,100507.81
2022-12-07T09:11:16.429Z,100504.25
2022-12-07T09:13:44.173Z,100517.28
2022-12-07T09:16:12.121Z,100510.88
2022-12-07T09:18:41.660Z,100508.16
2022-12-07T09:21:10.185Z,100514.06
2022-12-07T09:23:38.014Z,100512.94
2022-12-07T09:26:10.576Z,100518.78
2022-12-07T09:28:38.549Z,100517.69
2022-12-07T09:31:24.479Z,100519.91
2022-12-07T09:33:57.366Z,100522.38
2022-12-07T09:36:25.220Z,100524.47
2022-12-07T09:38:52.996Z,100524.22
2022-12-07T09:41:21.491Z,100519.34
2022-12-07T09:43:49.260Z,100523.66
2022-12-07T09:46:21.320Z,100518.22
2022-12-07T09:48:50.934Z,100516.34
2022-12-07T09:51:25.012Z,100526.91
2022-12-07T09:53:55.280Z,100516.25
2022-12-07T09:56:24.700Z,100517.94
2022-12-07T09:58:57.211Z,100507.66
2022-12-07T10:01:25.052Z,100502.09
2022-12-07T10:03:56.806Z,100510.09
2022-12-07T10:06:26.004Z,100503.13
2022-12-07T10:08:53.864Z,100503.81
2022-12-07T10:11:22.112Z,100500.13
2022-12-07T10:13:54.795Z,100505.31
2022-12-07T10:16:39.720Z,100496.44
2022-12-07T10:19:24.876Z,100501.16
2022-12-07T10:22:05.751Z,100493.22
2022-12-07T10:24:33.649Z,100497.38
2022-12-07T10:27:01.556Z,100490.38
2022-12-07T10:29:33.194Z,100494.16
2022-12-07T10:32:03.096Z,100489.53
2022-12-07T10:34:36.499Z,100488.69
2022-12-07T10:37:19.049Z,100480.66
2022-12-07T10:39:48.888Z,100477.09
2022-12-07T10:42:22.314Z,100485.94
2022-12-07T10:44:50.999Z,100469.94
2022-12-07T10:47:38.398Z,100470.78
2022-12-07T10:50:36.290Z,100470.41
2022-12-07T10:53:21.812Z,100465.31
2022-12-07T10:56:11.504Z,100458.41
2022-12-07T10:58:54.765Z,100456.09
2022-12-07T11:01:28.206Z,100467.72
2022-12-07T11:04:16.900Z,100462.50
2022-12-07T11:06:53.223Z,100470.44
2022-12-07T11:10:13.533Z,100466.78
2022-12-07T11:12:55.153Z,100461.94
2022-12-07T11:15:27.169Z,100460.16
2022-12-07T11:18:03.394Z,100452.31
2022-12-07T11:20:41.004Z,100450.25
2022-12-07T11:23:18.201Z,100446.56
2022-12-07T11:25:55.450Z,100443.63
2022-12-07T11:28:34.203Z,100433.19
2022-12-07T11:31:13.181Z,100430.19
2022-12-07T11:33:46.206Z,100428.22
2022-12-07T11:36:19.626Z,100424.53
2022-12-07T11:38:49.937Z,100420.75
2022-12-07T11:41:24.748Z,100421.44
2022-12-07T11:43:56.948Z,100419.16
2022-12-07T11:46:28.525Z,100411.78
2022-12-07T11:49:05.268Z,100411.97
2022-12-07T11:51:38.300Z,100415.56
2022-12-07T11:54:16.301Z,100417.44
2022-12-07T11:56:47.929Z,100411.53
2022-12-07T11:59:22.971Z,100406.72
2022-12-07T12:01:57.162Z,100401.78
2022-12-07T12:04:32.994Z,100405.44
2022-12-07T12:09:55.012Z,100404.06
2022-12-07T12:16:12.873Z,100400.78
2022-12-07T12:18:55.190Z,100405.13
2022-12-07T12:21:28.466Z,100391.34
2022-12-07T12:24:01.575Z,100383.59
2022-12-07T12:26:32.651Z,100377.72
2022-12-07T12:29:04.188Z,100377.28
2022-12-07T12:31:40.172Z,100384.69
2022-12-07T12:34:33.960Z,100372.31
2022-12-07T12:37:01.979Z,100377.03
2022-12-07T12:39:30.111Z,100378.38
2022-12-07T12:42:09.552Z,100370.53
2022-12-07T12:45:07.092Z,100367.31
2022-12-07T12:47:44.149Z,100373.75
2022-12-07T12:50:20.276Z,100362.63
2022-12-07T12:52:54.259Z,100369.44
2022-12-07T12:55:40.305Z,100358.94
2022-12-07T12:58:32.561Z,100368.03
2022-12-07T13:01:49.579Z,100359.03
2022-12-07T13:04:53.337Z,100353.66
2022-12-07T13:07:39.829Z,100350.69
2022-12-07T13:10:23.499Z,100353.34
2022-12-07T13:12:58.514Z,100348.06
2022-12-07T13:15:38.713Z,100343.81
2022-12-07T13:18:26.003Z,100341.34
2022-12-07T13:20:57.216Z,100340.59
2022-12-07T13:23:27.794Z,100331.72
2022-12-07T13:26:26.960Z,100325.59
2022-12-07T13:29:09.509Z,100334.47
2022-12-07T13:31:40.019Z,100323.13
2022-12-07T13:34:33.621Z,100321.63
2022-12-07T13:37:03.414Z,100323.84
2022-12-07T13:39:31.187Z,100322.50
2022-12-07T13:42:02.873Z,100315.72
2022-12-07T13:44:41.954Z,100316.00
2022-12-07T13:47:17.680Z,100317.16
2022-12-07T13:49:54.036Z,100315.66
2022-12-07T13:52:25.421Z,100326.41
2022-12-07T13:55:01.312Z,100317.81
2022-12-07T13:57:32.088Z,100317.81
2022-12-07T14:00:00.744Z,100317.81
2022-12-07T14:02:34.541Z,100321.50
2022-12-07T14:05:15.788Z,100311.00
2022-12-07T14:07:55.248Z,100308.59
2022-12-07T14:10:28.337Z,100320.75
2022-12-07T14:12:56.648Z,100317.06
2022-12-07T14:15:29.173Z,100323.09
2022-12-07T14:17:57.692Z,100315.38
2022-12-07T14:20:35.491Z,100315.56
2022-12-07T14:23:10.145Z,100311.97
2022-12-07T14:25:50.725Z,100313.47
2022-12-07T14:28:28.368Z,100316.88
2022-12-07T14:30:56.129Z,100315.06
2022-12-07T14:33:25.073Z,100315.75
2022-12-07T14:35:56.100Z,100318.47
2022-12-07T14:38:23.929Z,100317.53
2022-12-07T14:40:51.995Z,100313.28
2022-12-07T14:43:20.829Z,100315.91
2022-12-07T14:45:48.852Z,100314.25
2022-12-07T14:53:57.509Z,100312.16
2022-12-07T14:56:25.676Z,100317.25
2022-12-07T14:58:53.650Z,100310.63
2022-12-07T15:01:21.563Z,100309.03
2022-12-07T15:03:49.448Z,100309.78
2022-12-07T15:06:20.156Z,100307.50
2022-12-07T15:08:47.967Z,100306.00
2022-12-07T15:11:16.692Z,100308.16
2022-12-07T15:14:02.026Z,100300.34
2022-12-07T15:16:40.584Z,100302.13
2022-12-07T15:19:27.888Z,100299.75
2022-12-07T15:21:58.265Z,100302.69
2022-12-07T15:24:26.399Z,100295.78
2022-12-07T15:26:54.656Z,100297.59
2022-12-07T15:29:23.629Z,100298.44
2022-12-07T15:31:57.504Z,100295.91
2022-12-07T15:34:27.612Z,100291.47
2022-12-07T15:36:56.939Z,100294.94
2022-12-07T15:39:24.657Z,100292.59
2022-12-07T15:41:52.532Z,100277.88
2022-12-07T15:44:38.032Z,100279.09
2022-12-07T15:47:06.720Z,100285.50
2022-12-07T15:49:34.545Z,100286.63
2022-12-07T15:52:03.609Z,100288.59
2022-12-07T15:54:33.151Z,100282.56
2022-12-07T15:57:00.970Z,100284.53
2022-12-07T15:59:30.042Z,100282.44
2022-12-07T16:01:58.280Z,100276.41
2022-12-07T16:04:26.402Z,100274.63
2022-12-07T16:06:54.178Z,100269.69
2022-12-07T16:09:23.349Z,100269.03
2022-12-07T16:11:53.115Z,100271.06
2022-12-07T16:14:20.919Z,100273.16
2022-12-07T16:16:49.734Z,100269.91
2022-12-07T16:19:17.840Z,100266.72
2022-12-07T16:21:45.546Z,100262.66
2022-12-07T16:24:15.980Z,100265.56
2022-12-07T16:26:49.857Z,100262.31
2022-12-07T16:29:18.962Z,100269.63
2022-12-07T16:31:46.948Z,100267.19
2022-12-07T16:34:14.809Z,100256.16
2022-12-07T16:39:30.349Z,100268.75
2022-12-07T16:41:59.407Z,100259.38
2022-12-07T16:44:27.182Z,100251.75
2022-12-07T16:46:55.039Z,100260.59
2022-12-07T16:49:24.956Z,100267.06
2022-12-07T16:52:14.983Z,100263.75
2022-12-07T16:54:42.297Z,100261.28
2022-12-07T16:57:14.194Z,100260.50
2022-12-07T16:59:44.435Z,100257.31
2022-12-07T17:02:14.075Z,100254.91
2022-12-07T17:04:43.309Z,100256.88
2022-12-07T17:07:11.397Z,100251.75
2022-12-07T17:09:40.128Z,100260.69
2022-12-07T17:12:08.037Z,100256.44
2022-12-07T17:14:54.759Z,100250.56
2022-12-07T17:17:22.589Z,100252.53
2022-12-07T17:19:50.474Z,100247.50
2022-12-07T17:22:18.400Z,100257.38
2022-12-07T17:24:46.137Z,100253.97
2022-12-07T17:27:13.865Z,100255.91
2022-12-07T17:29:43.049Z,100254.38
2022-12-07T17:32:10.794Z,100254.38
2022-12-07T17:34:38.898Z,100254.63
2022-12-07T17:37:06.808Z,100252.06
2022-12-07T17:39:34.602Z,100247.72
2022-12-07T17:42:19.943Z,100257.28
2022-12-07T17:44:49.050Z,100250.13
2022-12-07T17:47:18.633Z,100243.06
2022-12-07T17:49:47.117Z,100246.56
2022-12-07T17:52:33.083Z,100233.50
2022-12-07T17:55:01.057Z,100236.13
2022-12-07T17:57:28.936Z,100234.31
2022-12-07T17:59:58.352Z,100244.78
2022-12-07T18:02:26.309Z,100247.41
2022-12-07T18:04:54.161Z,100232.47
2022-12-07T18:07:21.940Z,100229.75
2022-12-07T18:09:49.817Z,100234.16
2022-12-07T18:12:17.560Z,100231.44
2022-12-07T18:14:45.283Z,100232.38
2022-12-07T18:17:14.368Z,100234.25
2022-12-07T18:19:42.159Z,100229.97
2022-12-07T18:22:10.168Z,100223.09
2022-12-07T18:24:39.075Z,100218.75
2022-12-07T18:27:07.372Z,100217.22
2022-12-07T18:29:35.097Z,100216.56
2022-12-07T18:32:04.960Z,100219.41
2022-12-07T18:34:34.129Z,100216.97
2022-12-07T18:37:01.882Z,100214.56
2022-12-07T18:39:33.612Z,100210.16
2022-12-07T18:42:02.168Z,100212.94
2022-12-07T18:44:30.002Z,100218.41
2022-12-07T18:46:57.811Z,100215.91
2022-12-07T18:49:25.674Z,100218.53
2022-12-07T18:51:54.844Z,100214.22
2022-12-07T18:54:22.748Z,100211.75
2022-12-07T18:56:50.446Z,100209.13
2022-12-07T18:59:35.648Z,100209.03
2022-12-07T19:02:03.401Z,100203.84
2022-12-07T19:04:31.400Z,100205.63
2022-12-07T19:07:00.548Z,100205.47
2022-12-07T19:09:28.270Z,100202.94
2022-12-07T19:11:57.242Z,100200.28
2022-12-07T19:14:27.508Z,100201.13
2022-12-07T19:16:57.491Z,100195.03
2022-12-07T19:19:30.164Z,100196.78
2022-12-07T19:21:58.074Z,100192.41
2022-12-07T19:24:27.352Z,100188.88
2022-12-07T19:26:55.080Z,100190.75
2022-12-07T19:29:23.007Z,100192.47
2022-12-07T19:31:50.819Z,100191.59
2022-12-07T19:34:18.888Z,100195.19
2022-12-07T19:36:48.163Z,100193.38
2022-12-07T19:39:16.290Z,100192.41
2022-12-07T19:41:46.679Z,100196.72
2022-12-07T19:44:16.219Z,100194.16
2022-12-07T19:46:46.818Z,100194.16
2022-12-07T19:49:16.413Z,100190.69
2022-12-07T19:51:45.349Z,100188.88
2022-12-07T19:54:15.515Z,100190.75
2022-12-07T19:56:45.593Z,100191.69
2022-12-07T19:59:13.627Z,100187.22
2022-12-07T20:01:42.186Z,100186.34
2022-12-07T20:04:12.333Z,100185.56
2022-12-07T20:06:40.805Z,100192.63
2022-12-07T20:09:08.570Z,100193.56
2022-12-07T20:11:54.963Z,100178.63
2022-12-07T20:14:24.971Z,100182.94
2022-12-07T20:16:53.290Z,100176.75
2022-12-07T20:19:21.452Z,100173.34
2022-12-07T20:21:50.396Z,100171.63
2022-12-07T20:24:20.507Z,100162.06
2022-12-07T20:26:50.128Z,100164.63
2022-12-07T20:29:19.339Z,100162.81
2022-12-07T20:31:49.943Z,100168.94
2022-12-07T20:34:17.806Z,100171.47
2022-12-07T20:36:45.820Z,100169.69
2022-12-07T20:39:14.353Z,100176.59
2022-12-07T20:41:59.919Z,100165.88
2022-12-07T20:44:28.188Z,100156.31
2022-12-07T20:46:57.476Z,100156.19
2022-12-07T20:49:25.233Z,100160.53
2022-12-07T20:51:53.078Z,100166.56
2022-12-07T20:54:20.890Z,100160.47
2022-12-07T20:56:48.692Z,100174.47
2022-12-07T20:59:17.097Z,100170.91
2022-12-07T21:01:45.532Z,100167.50
2022-12-07T21:04:15.464Z,100159.59
2022-12-07T21:06:43.234Z,100152.56
2022-12-07T21:09:11.870Z,100148.22
2022-12-07T21:11:40.276Z,100151.19
2022-12-07T21:14:08.657Z,100146.00
2022-12-07T21:16:36.688Z,100146.06
2022-12-07T21:19:05.398Z,100146.06
2022-12-07T21:21:35.062Z,100135.72
2022-12-07T21:24:03.841Z,100129.63
2022-12-07T21:26:34.314Z,100129.50
2022-12-07T21:29:02.424Z,100131.16
2022-12-07T21:31:30.403Z,100129.44
2022-12-07T21:33:58.326Z,100126.88
2022-12-07T21:36:27.266Z,100123.25
2022-12-07T21:38:56.479Z,100117.38
2022-12-07T21:41:26.614Z,100114.66
2022-12-07T21:43:54.419Z,100114.75
2022-12-07T21:46:28.097Z,100114.75
2022-12-07T21:49:00.828Z,100115.59
2022-12-07T21:51:30.140Z,100110.31
2022-12-07T21:54:00.784Z,100106.84
2022-12-07T21:56:30.326Z,100099.03
2022-12-07T21:59:01.296Z,100104.41
2022-12-07T22:01:31.111Z,100105.25
2022-12-07T22:03:58.910Z,100108.03
2022-12-07T22:06:28.069Z,100109.75
2022-12-07T22:08:57.284Z,100114.25
2022-12-07T22:11:26.336Z,100109.75
2022-12-07T22:14:11.408Z,100104.56
2022-12-07T22:16:39.332Z,100111.69
2022-12-07T22:19:07.254Z,100108.13
2022-12-07T22:21:35.531Z,100114.38
2022-12-07T22:24:03.364Z,100111.94
2022-12-07T22:26:32.569Z,100103.16
2022-12-07T22:29:00.588Z,100095.47
2022-12-07T22:31:29.422Z,100107.09
2022-12-07T22:33:57.626Z,100111.31
2022-12-07T22:36:25.487Z,100104.53
2022-12-07T22:38:53.507Z,100105.47
2022-12-07T22:41:25.675Z,100110.81
2022-12-07T22:43:55.198Z,100106.56
2022-12-07T22:46:23.975Z,100094.41
2022-12-07T22:48:52.278Z,100094.47
2022-12-07T22:51:24.572Z,100100.53
2022-12-07T22:53:53.097Z,100093.56
2022-12-07T22:56:21.380Z,100091.97
2022-12-07T22:58:49.334Z,100094.59
2022-12-07T23:01:20.204Z,100090.41
2022-12-07T23:03:48.500Z,100088.56
2022-12-07T23:06:18.706Z,100082.44
2022-12-07T23:08:46.732Z,100078.09
2022-12-07T23:11:38.409Z,100078.03
2022-12-07T23:14:10.946Z,100072.78
2022-12-07T23:16:40.516Z,100072.59
2022-12-07T23:19:08.335Z,100072.53
2022-12-07T23:21:36.337Z,100066.56
2022-12-07T23:24:04.633Z,100069.19
2022-12-07T23:26:32.259Z,100061.22
2022-12-07T23:29:00.000Z,100056.81
2022-12-07T23:31:27.873Z,100048.06
2022-12-07T23:33:56.998Z,100054.25
2022-12-07T23:36:26.756Z,100052.31
2022-12-07T23:38:56.033Z,100050.78
2022-12-07T23:41:25.380Z,100053.25
2022-12-07T23:43:54.078Z,100063.94
2022-12-07T23:46:24.169Z,100061.22
2022-12-07T23:48:54.079Z,100053.19
2022-12-07T23:51:23.622Z,100059.28
2022-12-07T23:53:52.558Z,100047.91
2022-12-07T23:56:22.125Z,100047.91
2022-12-07T23:58:51.011Z,100046.97
